sensor_id;sensor_type;location;lat;lon;timestamp;P1;durP1;ratioP1;P2;durP2;ratioP2
68457;SDS011;65384;52.016;5.428;2023-01-16T00:01:38;7.25;;;2.22;;
68457;SDS011;65384;52.016;5.428;2023-01-16T00:04:03;6.03;;;2.45;;
68457;SDS011;65384;52.016;5.428;2023-01-16T00:06:29;4.55;;;1.80;;
68457;SDS011;65384;52.016;5.428;2023-01-16T00:08:54;7.05;;;2.67;;
68457;SDS011;65384;52.016;5.428;2023-01-16T00:11:19;4.10;;;2.45;;
68457;SDS011;65384;52.016;5.428;2023-01-16T00:13:45;6.10;;;2.80;;
68457;SDS011;65384;52.016;5.428;2023-01-16T00:16:10;4.63;;;2.25;;
68457;SDS011;65384;52.016;5.428;2023-01-16T00:18:35;8.32;;;2.83;;
68457;SDS011;65384;52.016;5.428;2023-01-16T00:21:01;4.55;;;2.53;;
68457;SDS011;65384;52.016;5.428;2023-01-16T00:23:26;5.85;;;2.58;;
68457;SDS011;65384;52.016;5.428;2023-01-16T00:25:52;5.57;;;2.67;;
68457;SDS011;65384;52.016;5.428;2023-01-16T00:28:17;5.90;;;2.63;;
68457;SDS011;65384;52.016;5.428;2023-01-16T00:30:43;6.00;;;3.20;;
68457;SDS011;65384;52.016;5.428;2023-01-16T00:33:08;9.23;;;3.28;;
68457;SDS011;65384;52.016;5.428;2023-01-16T00:35:34;9.77;;;3.30;;
68457;SDS011;65384;52.016;5.428;2023-01-16T00:38:00;7.38;;;3.50;;
68457;SDS011;65384;52.016;5.428;2023-01-16T00:40:25;7.80;;;3.42;;
68457;SDS011;65384;52.016;5.428;2023-01-16T00:42:51;7.28;;;3.55;;
68457;SDS011;65384;52.016;5.428;2023-01-16T00:45:16;8.68;;;3.75;;
68457;SDS011;65384;52.016;5.428;2023-01-16T00:47:42;10.23;;;4.43;;
68457;SDS011;65384;52.016;5.428;2023-01-16T00:50:07;8.07;;;4.20;;
68457;SDS011;65384;52.016;5.428;2023-01-16T00:52:33;10.60;;;4.53;;
68457;SDS011;65384;52.016;5.428;2023-01-16T00:54:59;10.73;;;5.05;;
68457;SDS011;65384;52.016;5.428;2023-01-16T00:57:24;11.73;;;5.07;;
68457;SDS011;65384;52.016;5.428;2023-01-16T00:59:49;11.25;;;4.07;;
68457;SDS011;65384;52.016;5.428;2023-01-16T01:02:15;11.23;;;5.60;;
68457;SDS011;65384;52.016;5.428;2023-01-16T01:04:40;13.13;;;5.25;;
68457;SDS011;65384;52.016;5.428;2023-01-16T01:07:06;15.82;;;5.88;;
68457;SDS011;65384;52.016;5.428;2023-01-16T01:09:31;12.50;;;5.45;;
68457;SDS011;65384;52.016;5.428;2023-01-16T01:11:57;14.32;;;5.50;;
68457;SDS011;65384;52.016;5.428;2023-01-16T01:14:23;17.23;;;6.10;;
68457;SDS011;65384;52.016;5.428;2023-01-16T01:16:49;16.52;;;6.30;;
68457;SDS011;65384;52.016;5.428;2023-01-16T01:19:14;12.60;;;6.00;;
68457;SDS011;65384;52.016;5.428;2023-01-16T01:21:40;13.13;;;5.72;;
68457;SDS011;65384;52.016;5.428;2023-01-16T01:24:05;19.08;;;6.60;;
68457;SDS011;65384;52.016;5.428;2023-01-16T01:26:31;16.42;;;6.65;;
68457;SDS011;65384;52.016;5.428;2023-01-16T01:28:56;13.50;;;6.05;;
68457;SDS011;65384;52.016;5.428;2023-01-16T01:31:21;15.23;;;6.25;;
68457;SDS011;65384;52.016;5.428;2023-01-16T01:33:47;12.20;;;5.22;;
68457;SDS011;65384;52.016;5.428;2023-01-16T01:36:12;16.05;;;6.35;;
68457;SDS011;65384;52.016;5.428;2023-01-16T01:38:38;11.75;;;5.70;;
68457;SDS011;65384;52.016;5.428;2023-01-16T01:41:03;12.35;;;5.43;;
68457;SDS011;65384;52.016;5.428;2023-01-16T01:43:42;11.20;;;4.25;;
68457;SDS011;65384;52.016;5.428;2023-01-16T01:46:07;10.02;;;4.20;;
68457;SDS011;65384;52.016;5.428;2023-01-16T01:48:42;15.43;;;5.10;;
68457;SDS011;65384;52.016;5.428;2023-01-16T01:51:09;8.90;;;4.25;;
68457;SDS011;65384;52.016;5.428;2023-01-16T01:53:41;10.93;;;4.53;;
68457;SDS011;65384;52.016;5.428;2023-01-16T01:56:11;10.38;;;4.75;;
68457;SDS011;65384;52.016;5.428;2023-01-16T01:58:40;8.50;;;4.15;;
68457;SDS011;65384;52.016;5.428;2023-01-16T02:01:06;7.78;;;2.95;;
68457;SDS011;65384;52.016;5.428;2023-01-16T02:05:57;11.10;;;4.15;;
68457;SDS011;65384;52.016;5.428;2023-01-16T02:08:26;8.43;;;3.60;;
68457;SDS011;65384;52.016;5.428;2023-01-16T02:10:59;9.02;;;3.38;;
68457;SDS011;65384;52.016;5.428;2023-01-16T02:13:29;9.48;;;3.35;;
68457;SDS011;65384;52.016;5.428;2023-01-16T02:15:55;7.28;;;3.35;;
68457;SDS011;65384;52.016;5.428;2023-01-16T02:18:39;8.40;;;3.08;;
68457;SDS011;65384;52.016;5.428;2023-01-16T02:24:02;9.50;;;3.47;;
68457;SDS011;65384;52.016;5.428;2023-01-16T02:26:50;9.07;;;3.00;;
68457;SDS011;65384;52.016;5.428;2023-01-16T02:32:12;6.45;;;2.92;;
68457;SDS011;65384;52.016;5.428;2023-01-16T02:34:55;7.57;;;3.00;;
68457;SDS011;65384;52.016;5.428;2023-01-16T02:37:45;9.77;;;2.90;;
68457;SDS011;65384;52.016;5.428;2023-01-16T02:43:03;7.70;;;2.42;;
68457;SDS011;65384;52.016;5.428;2023-01-16T02:51:28;10.77;;;2.60;;
68457;SDS011;65384;52.016;5.428;2023-01-16T02:56:46;7.32;;;2.20;;
68457;SDS011;65384;52.016;5.428;2023-01-16T02:59:14;6.57;;;1.77;;
68457;SDS011;65384;52.016;5.428;2023-01-16T03:01:40;5.00;;;1.70;;
68457;SDS011;65384;52.016;5.428;2023-01-16T03:04:52;5.72;;;1.50;;
68457;SDS011;65384;52.016;5.428;2023-01-16T03:09:39;6.00;;;1.52;;
68457;SDS011;65384;52.016;5.428;2023-01-16T03:14:43;6.07;;;1.50;;
68457;SDS011;65384;52.016;5.428;2023-01-16T03:17:17;5.00;;;1.70;;
68457;SDS011;65384;52.016;5.428;2023-01-16T03:30:24;4.63;;;1.52;;
68457;SDS011;65384;52.016;5.428;2023-01-16T03:32:58;4.45;;;1.55;;
68457;SDS011;65384;52.016;5.428;2023-01-16T03:35:40;5.05;;;1.50;;
68457;SDS011;65384;52.016;5.428;2023-01-16T03:38:09;6.82;;;1.70;;
68457;SDS011;65384;52.016;5.428;2023-01-16T03:40:37;5.43;;;1.55;;
68457;SDS011;65384;52.016;5.428;2023-01-16T03:43:23;3.92;;;1.30;;
68457;SDS011;65384;52.016;5.428;2023-01-16T03:45:52;6.97;;;1.40;;
68457;SDS011;65384;52.016;5.428;2023-01-16T03:51:13;5.85;;;1.30;;
68457;SDS011;65384;52.016;5.428;2023-01-16T03:53:45;5.90;;;1.80;;
68457;SDS011;65384;52.016;5.428;2023-01-16T03:58:44;6.75;;;1.63;;
68457;SDS011;65384;52.016;5.428;2023-01-16T04:06:46;11.73;;;1.73;;
68457;SDS011;65384;52.016;5.428;2023-01-16T04:12:02;6.05;;;1.65;;
68457;SDS011;65384;52.016;5.428;2023-01-16T04:14:28;6.10;;;2.10;;
68457;SDS011;65384;52.016;5.428;2023-01-16T04:16:54;7.05;;;1.60;;
68457;SDS011;65384;52.016;5.428;2023-01-16T04:19:20;4.75;;;1.40;;
68457;SDS011;65384;52.016;5.428;2023-01-16T04:21:47;7.65;;;1.38;;
68457;SDS011;65384;52.016;5.428;2023-01-16T04:24:12;5.93;;;1.30;;
68457;SDS011;65384;52.016;5.428;2023-01-16T04:26:38;7.45;;;1.52;;
68457;SDS011;65384;52.016;5.428;2023-01-16T04:29:04;5.07;;;1.10;;
68457;SDS011;65384;52.016;5.428;2023-01-16T04:31:29;5.97;;;1.38;;
68457;SDS011;65384;52.016;5.428;2023-01-16T04:33:54;5.60;;;1.30;;
68457;SDS011;65384;52.016;5.428;2023-01-16T04:36:20;6.00;;;1.38;;
68457;SDS011;65384;52.016;5.428;2023-01-16T04:38:46;2.33;;;1.40;;
68457;SDS011;65384;52.016;5.428;2023-01-16T04:41:11;4.32;;;1.27;;
68457;SDS011;65384;52.016;5.428;2023-01-16T04:43:36;4.85;;;1.40;;
68457;SDS011;65384;52.016;5.428;2023-01-16T04:46:02;4.82;;;1.20;;
68457;SDS011;65384;52.016;5.428;2023-01-16T04:48:27;4.43;;;1.38;;
68457;SDS011;65384;52.016;5.428;2023-01-16T04:50:52;3.25;;;1.15;;
68457;SDS011;65384;52.016;5.428;2023-01-16T04:53:18;3.40;;;1.17;;
68457;SDS011;65384;52.016;5.428;2023-01-16T04:55:43;7.03;;;1.40;;
68457;SDS011;65384;52.016;5.428;2023-01-16T04:58:09;4.55;;;1.40;;
68457;SDS011;65384;52.016;5.428;2023-01-16T05:00:34;4.00;;;1.48;;
68457;SDS011;65384;52.016;5.428;2023-01-16T05:02:59;7.03;;;1.42;;
68457;SDS011;65384;52.016;5.428;2023-01-16T05:05:25;3.08;;;1.17;;
68457;SDS011;65384;52.016;5.428;2023-01-16T05:07:50;5.63;;;1.40;;
68457;SDS011;65384;52.016;5.428;2023-01-16T05:10:36;6.50;;;1.60;;
68457;SDS011;65384;52.016;5.428;2023-01-16T05:13:01;5.88;;;1.30;;
68457;SDS011;65384;52.016;5.428;2023-01-16T05:15:26;7.80;;;1.73;;
68457;SDS011;65384;52.016;5.428;2023-01-16T05:17:52;5.68;;;1.30;;
68457;SDS011;65384;52.016;5.428;2023-01-16T05:20:19;7.40;;;1.23;;
68457;SDS011;65384;52.016;5.428;2023-01-16T05:22:44;6.88;;;1.33;;
68457;SDS011;65384;52.016;5.428;2023-01-16T05:25:09;4.15;;;1.27;;
68457;SDS011;65384;52.016;5.428;2023-01-16T05:27:35;11.38;;;1.55;;
68457;SDS011;65384;52.016;5.428;2023-01-16T05:30:00;3.80;;;1.42;;
68457;SDS011;65384;52.016;5.428;2023-01-16T05:32:25;7.70;;;1.60;;
68457;SDS011;65384;52.016;5.428;2023-01-16T05:34:51;7.07;;;1.40;;
68457;SDS011;65384;52.016;5.428;2023-01-16T05:37:16;5.15;;;1.40;;
68457;SDS011;65384;52.016;5.428;2023-01-16T05:39:41;5.63;;;1.42;;
68457;SDS011;65384;52.016;5.428;2023-01-16T05:42:07;6.07;;;1.50;;
68457;SDS011;65384;52.016;5.428;2023-01-16T05:44:46;6.20;;;1.30;;
68457;SDS011;65384;52.016;5.428;2023-01-16T05:47:12;3.78;;;1.20;;
68457;SDS011;65384;52.016;5.428;2023-01-16T05:49:38;6.05;;;1.40;;
68457;SDS011;65384;52.016;5.428;2023-01-16T05:52:03;3.72;;;1.17;;
68457;SDS011;65384;52.016;5.428;2023-01-16T05:54:28;3.83;;;1.25;;
68457;SDS011;65384;52.016;5.428;2023-01-16T05:56:54;4.28;;;1.20;;
68457;SDS011;65384;52.016;5.428;2023-01-16T05:59:19;3.03;;;1.35;;
68457;SDS011;65384;52.016;5.428;2023-01-16T06:01:44;4.93;;;1.33;;
68457;SDS011;65384;52.016;5.428;2023-01-16T06:04:10;5.72;;;1.60;;
68457;SDS011;65384;52.016;5.428;2023-01-16T06:06:35;5.68;;;1.63;;
68457;SDS011;65384;52.016;5.428;2023-01-16T06:09:00;3.75;;;1.40;;
68457;SDS011;65384;52.016;5.428;2023-01-16T06:11:26;4.82;;;1.58;;
68457;SDS011;65384;52.016;5.428;2023-01-16T06:13:51;3.95;;;1.40;;
68457;SDS011;65384;52.016;5.428;2023-01-16T06:16:16;5.68;;;1.70;;
68457;SDS011;65384;52.016;5.428;2023-01-16T06:18:42;5.50;;;1.40;;
68457;SDS011;65384;52.016;5.428;2023-01-16T06:21:07;2.65;;;1.08;;
68457;SDS011;65384;52.016;5.428;2023-01-16T06:23:32;3.22;;;1.02;;
68457;SDS011;65384;52.016;5.428;2023-01-16T06:25:58;6.72;;;1.63;;
68457;SDS011;65384;52.016;5.428;2023-01-16T06:28:24;4.78;;;1.17;;
68457;SDS011;65384;52.016;5.428;2023-01-16T06:30:50;6.38;;;1.33;;
68457;SDS011;65384;52.016;5.428;2023-01-16T06:33:16;8.43;;;1.40;;
68457;SDS011;65384;52.016;5.428;2023-01-16T06:35:42;3.25;;;1.15;;
68457;SDS011;65384;52.016;5.428;2023-01-16T06:38:08;3.58;;;1.20;;
68457;SDS011;65384;52.016;5.428;2023-01-16T06:40:33;4.85;;;1.27;;
68457;SDS011;65384;52.016;5.428;2023-01-16T06:42:58;1.77;;;0.93;;
68457;SDS011;65384;52.016;5.428;2023-01-16T06:45:24;3.58;;;1.23;;
68457;SDS011;65384;52.016;5.428;2023-01-16T06:47:53;5.05;;;1.30;;
68457;SDS011;65384;52.016;5.428;2023-01-16T06:50:18;6.13;;;1.00;;
68457;SDS011;65384;52.016;5.428;2023-01-16T06:52:44;1.40;;;0.80;;
68457;SDS011;65384;52.016;5.428;2023-01-16T06:55:09;4.13;;;1.00;;
68457;SDS011;65384;52.016;5.428;2023-01-16T06:57:38;2.00;;;1.00;;
68457;SDS011;65384;52.016;5.428;2023-01-16T07:00:04;5.82;;;1.20;;
68457;SDS011;65384;52.016;5.428;2023-01-16T07:02:29;3.20;;;1.70;;
68457;SDS011;65384;52.016;5.428;2023-01-16T07:04:55;1.95;;;0.68;;
68457;SDS011;65384;52.016;5.428;2023-01-16T07:07:20;3.80;;;0.80;;
68457;SDS011;65384;52.016;5.428;2023-01-16T07:09:46;3.35;;;0.77;;
68457;SDS011;65384;52.016;5.428;2023-01-16T07:12:11;8.45;;;1.00;;
68457;SDS011;65384;52.016;5.428;2023-01-16T07:14:36;2.28;;;0.98;;
68457;SDS011;65384;52.016;5.428;2023-01-16T07:17:20;7.45;;;1.05;;
68457;SDS011;65384;52.016;5.428;2023-01-16T07:20:04;2.15;;;0.82;;
68457;SDS011;65384;52.016;5.428;2023-01-16T07:22:49;1.13;;;0.80;;
68457;SDS011;65384;52.016;5.428;2023-01-16T07:25:19;1.25;;;0.70;;
68457;SDS011;65384;52.016;5.428;2023-01-16T07:27:47;2.93;;;1.00;;
68457;SDS011;65384;52.016;5.428;2023-01-16T07:30:14;2.70;;;0.60;;
68457;SDS011;65384;52.016;5.428;2023-01-16T07:32:40;2.63;;;0.93;;
68457;SDS011;65384;52.016;5.428;2023-01-16T07:35:06;2.00;;;0.70;;
68457;SDS011;65384;52.016;5.428;2023-01-16T07:37:32;1.52;;;0.80;;
68457;SDS011;65384;52.016;5.428;2023-01-16T07:39:57;6.80;;;1.00;;
68457;SDS011;65384;52.016;5.428;2023-01-16T07:42:23;2.28;;;0.82;;
68457;SDS011;65384;52.016;5.428;2023-01-16T07:44:48;1.38;;;0.77;;
68457;SDS011;65384;52.016;5.428;2023-01-16T07:47:14;2.08;;;0.80;;
68457;SDS011;65384;52.016;5.428;2023-01-16T07:49:39;2.17;;;0.82;;
68457;SDS011;65384;52.016;5.428;2023-01-16T07:52:04;3.00;;;0.82;;
68457;SDS011;65384;52.016;5.428;2023-01-16T07:54:30;2.88;;;0.85;;
68457;SDS011;65384;52.016;5.428;2023-01-16T07:56:55;3.33;;;1.02;;
68457;SDS011;65384;52.016;5.428;2023-01-16T07:59:22;3.63;;;0.75;;
68457;SDS011;65384;52.016;5.428;2023-01-16T08:01:47;2.58;;;0.88;;
68457;SDS011;65384;52.016;5.428;2023-01-16T08:04:15;5.20;;;0.98;;
68457;SDS011;65384;52.016;5.428;2023-01-16T08:06:40;1.88;;;0.80;;
68457;SDS011;65384;52.016;5.428;2023-01-16T08:09:09;2.92;;;0.73;;
68457;SDS011;65384;52.016;5.428;2023-01-16T08:11:35;2.03;;;0.90;;
68457;SDS011;65384;52.016;5.428;2023-01-16T08:14:00;5.65;;;1.00;;
68457;SDS011;65384;52.016;5.428;2023-01-16T08:16:27;2.55;;;1.10;;
68457;SDS011;65384;52.016;5.428;2023-01-16T08:18:52;6.72;;;1.40;;
68457;SDS011;65384;52.016;5.428;2023-01-16T08:21:17;2.50;;;1.00;;
68457;SDS011;65384;52.016;5.428;2023-01-16T08:23:43;5.10;;;1.30;;
68457;SDS011;65384;52.016;5.428;2023-01-16T08:26:09;4.50;;;1.00;;
68457;SDS011;65384;52.016;5.428;2023-01-16T08:28:35;2.22;;;1.00;;
68457;SDS011;65384;52.016;5.428;2023-01-16T08:31:07;4.30;;;1.13;;
68457;SDS011;65384;52.016;5.428;2023-01-16T08:33:41;1.77;;;0.90;;
68457;SDS011;65384;52.016;5.428;2023-01-16T08:36:07;5.22;;;0.93;;
68457;SDS011;65384;52.016;5.428;2023-01-16T08:38:34;4.38;;;1.20;;
68457;SDS011;65384;52.016;5.428;2023-01-16T08:41:00;3.38;;;1.20;;
68457;SDS011;65384;52.016;5.428;2023-01-16T08:43:25;5.05;;;1.20;;
68457;SDS011;65384;52.016;5.428;2023-01-16T08:46:20;2.38;;;1.10;;
68457;SDS011;65384;52.016;5.428;2023-01-16T08:49:04;2.58;;;0.98;;
68457;SDS011;65384;52.016;5.428;2023-01-16T08:51:53;3.28;;;1.10;;
68457;SDS011;65384;52.016;5.428;2023-01-16T08:54:18;3.15;;;1.13;;
68457;SDS011;65384;52.016;5.428;2023-01-16T08:56:43;7.03;;;1.48;;
68457;SDS011;65384;52.016;5.428;2023-01-16T08:59:09;3.58;;;1.58;;
68457;SDS011;65384;52.016;5.428;2023-01-16T09:01:36;4.55;;;1.70;;
68457;SDS011;65384;52.016;5.428;2023-01-16T09:04:02;3.72;;;1.77;;
68457;SDS011;65384;52.016;5.428;2023-01-16T09:06:27;3.20;;;1.23;;
68457;SDS011;65384;52.016;5.428;2023-01-16T09:08:53;4.28;;;1.70;;
68457;SDS011;65384;52.016;5.428;2023-01-16T09:11:18;5.30;;;1.67;;
68457;SDS011;65384;52.016;5.428;2023-01-16T09:14:02;5.50;;;1.83;;
68457;SDS011;65384;52.016;5.428;2023-01-16T09:16:27;6.00;;;1.70;;
68457;SDS011;65384;52.016;5.428;2023-01-16T09:18:53;2.80;;;1.50;;
68457;SDS011;65384;52.016;5.428;2023-01-16T09:21:18;7.13;;;1.80;;
68457;SDS011;65384;52.016;5.428;2023-01-16T09:23:45;3.92;;;1.38;;
68457;SDS011;65384;52.016;5.428;2023-01-16T09:26:11;3.63;;;1.77;;
68457;SDS011;65384;52.016;5.428;2023-01-16T09:28:36;5.57;;;1.90;;
68457;SDS011;65384;52.016;5.428;2023-01-16T09:31:02;7.35;;;1.50;;
68457;SDS011;65384;52.016;5.428;2023-01-16T09:33:28;5.05;;;1.70;;
68457;SDS011;65384;52.016;5.428;2023-01-16T09:35:53;5.47;;;1.67;;
68457;SDS011;65384;52.016;5.428;2023-01-16T09:38:19;5.10;;;1.52;;
68457;SDS011;65384;52.016;5.428;2023-01-16T09:40:45;5.40;;;1.73;;
68457;SDS011;65384;52.016;5.428;2023-01-16T09:43:33;3.92;;;1.73;;
68457;SDS011;65384;52.016;5.428;2023-01-16T09:46:02;3.40;;;1.77;;
68457;SDS011;65384;52.016;5.428;2023-01-16T09:49:05;3.78;;;1.92;;
68457;SDS011;65384;52.016;5.428;2023-01-16T09:52:02;1.67;;;1.05;;
68457;SDS011;65384;52.016;5.428;2023-01-16T09:54:52;2.85;;;1.35;;
68457;SDS011;65384;52.016;5.428;2023-01-16T09:57:40;5.78;;;1.70;;
68457;SDS011;65384;52.016;5.428;2023-01-16T10:00:26;4.47;;;1.67;;
68457;SDS011;65384;52.016;5.428;2023-01-16T10:02:54;5.40;;;1.70;;
68457;SDS011;65384;52.016;5.428;2023-01-16T10:05:19;3.92;;;1.70;;
68457;SDS011;65384;52.016;5.428;2023-01-16T10:10:48;3.92;;;1.50;;
68457;SDS011;65384;52.016;5.428;2023-01-16T10:18:25;1.98;;;1.08;;
68457;SDS011;65384;52.016;5.428;2023-01-16T10:21:06;3.33;;;0.97;;
68457;SDS011;65384;52.016;5.428;2023-01-16T10:26:29;3.30;;;1.20;;
68457;SDS011;65384;52.016;5.428;2023-01-16T10:28:58;2.45;;;1.00;;
68457;SDS011;65384;52.016;5.428;2023-01-16T10:34:57;2.10;;;1.10;;
68457;SDS011;65384;52.016;5.428;2023-01-16T10:37:30;2.13;;;0.68;;
68457;SDS011;65384;52.016;5.428;2023-01-16T10:39:57;1.23;;;0.77;;
68457;SDS011;65384;52.016;5.428;2023-01-16T10:42:25;1.25;;;0.88;;
68457;SDS011;65384;52.016;5.428;2023-01-16T10:45:13;1.33;;;0.73;;
68457;SDS011;65384;52.016;5.428;2023-01-16T10:47:59;3.17;;;0.90;;
68457;SDS011;65384;52.016;5.428;2023-01-16T10:50:43;1.65;;;0.90;;
68457;SDS011;65384;52.016;5.428;2023-01-16T10:53:09;2.00;;;1.00;;
68457;SDS011;65384;52.016;5.428;2023-01-16T10:55:36;4.63;;;1.27;;
68457;SDS011;65384;52.016;5.428;2023-01-16T10:58:15;1.90;;;1.10;;
68457;SDS011;65384;52.016;5.428;2023-01-16T11:00:42;1.38;;;1.00;;
68457;SDS011;65384;52.016;5.428;2023-01-16T11:03:19;1.65;;;0.80;;
68457;SDS011;65384;52.016;5.428;2023-01-16T11:05:48;2.20;;;1.10;;
68457;SDS011;65384;52.016;5.428;2023-01-16T11:08:18;1.65;;;0.80;;
68457;SDS011;65384;52.016;5.428;2023-01-16T11:10:47;5.03;;;1.08;;
68457;SDS011;65384;52.016;5.428;2023-01-16T11:13:14;2.58;;;1.02;;
68457;SDS011;65384;52.016;5.428;2023-01-16T11:16:04;1.67;;;1.00;;
68457;SDS011;65384;52.016;5.428;2023-01-16T11:18:49;1.92;;;1.08;;
68457;SDS011;65384;52.016;5.428;2023-01-16T11:21:27;3.00;;;1.55;;
68457;SDS011;65384;52.016;5.428;2023-01-16T11:23:56;4.18;;;1.05;;
68457;SDS011;65384;52.016;5.428;2023-01-16T11:26:23;3.60;;;1.50;;
68457;SDS011;65384;52.016;5.428;2023-01-16T11:28:48;1.55;;;1.10;;
68457;SDS011;65384;52.016;5.428;2023-01-16T11:31:18;4.00;;;1.50;;
68457;SDS011;65384;52.016;5.428;2023-01-16T11:33:46;1.80;;;1.02;;
68457;SDS011;65384;52.016;5.428;2023-01-16T11:36:17;3.63;;;1.27;;
68457;SDS011;65384;52.016;5.428;2023-01-16T11:38:44;2.28;;;1.20;;
68457;SDS011;65384;52.016;5.428;2023-01-16T11:41:10;2.22;;;1.02;;
68457;SDS011;65384;52.016;5.428;2023-01-16T11:43:36;1.65;;;1.00;;
68457;SDS011;65384;52.016;5.428;2023-01-16T11:46:38;1.80;;;1.15;;
68457;SDS011;65384;52.016;5.428;2023-01-16T11:49:16;2.22;;;1.00;;
68457;SDS011;65384;52.016;5.428;2023-01-16T11:51:43;2.25;;;1.13;;
68457;SDS011;65384;52.016;5.428;2023-01-16T11:54:13;1.42;;;1.00;;
68457;SDS011;65384;52.016;5.428;2023-01-16T11:59:13;1.42;;;0.85;;
68457;SDS011;65384;52.016;5.428;2023-01-16T12:04:41;1.85;;;1.10;;
68457;SDS011;65384;52.016;5.428;2023-01-16T12:10:00;2.47;;;1.10;;
68457;SDS011;65384;52.016;5.428;2023-01-16T12:15:22;2.97;;;1.38;;
68457;SDS011;65384;52.016;5.428;2023-01-16T12:20:34;6.53;;;1.63;;
68457;SDS011;65384;52.016;5.428;2023-01-16T12:28:49;2.28;;;1.20;;
68457;SDS011;65384;52.016;5.428;2023-01-16T12:45:51;1.92;;;1.13;;
68457;SDS011;65384;52.016;5.428;2023-01-16T12:53:48;2.22;;;1.05;;
68457;SDS011;65384;52.016;5.428;2023-01-16T12:59:12;2.10;;;1.10;;
68457;SDS011;65384;52.016;5.428;2023-01-16T13:01:46;3.42;;;1.42;;
68457;SDS011;65384;52.016;5.428;2023-01-16T13:06:52;4.93;;;1.42;;
68457;SDS011;65384;52.016;5.428;2023-01-16T13:09:30;1.80;;;1.10;;
68457;SDS011;65384;52.016;5.428;2023-01-16T13:12:35;1.75;;;0.95;;
68457;SDS011;65384;52.016;5.428;2023-01-16T13:15:22;2.75;;;1.17;;
68457;SDS011;65384;52.016;5.428;2023-01-16T13:20:55;3.30;;;1.08;;
68457;SDS011;65384;52.016;5.428;2023-01-16T13:23:23;1.60;;;0.85;;
68457;SDS011;65384;52.016;5.428;2023-01-16T13:25:54;1.75;;;1.00;;
68457;SDS011;65384;52.016;5.428;2023-01-16T13:31:07;2.08;;;1.27;;
68457;SDS011;65384;52.016;5.428;2023-01-16T13:33:40;1.88;;;1.23;;
68457;SDS011;65384;52.016;5.428;2023-01-16T13:38:44;2.20;;;1.33;;
68457;SDS011;65384;52.016;5.428;2023-01-16T13:41:34;3.30;;;1.15;;
68457;SDS011;65384;52.016;5.428;2023-01-16T13:44:05;1.48;;;1.00;;
68457;SDS011;65384;52.016;5.428;2023-01-16T13:46:54;3.38;;;1.20;;
68457;SDS011;65384;52.016;5.428;2023-01-16T13:49:21;2.28;;;1.20;;
68457;SDS011;65384;52.016;5.428;2023-01-16T13:51:49;2.65;;;1.35;;
68457;SDS011;65384;52.016;5.428;2023-01-16T13:54:18;5.32;;;1.23;;
68457;SDS011;65384;52.016;5.428;2023-01-16T13:56:57;3.70;;;1.40;;
68457;SDS011;65384;52.016;5.428;2023-01-16T13:59:47;3.17;;;1.58;;
68457;SDS011;65384;52.016;5.428;2023-01-16T14:07:48;2.35;;;1.40;;
68457;SDS011;65384;52.016;5.428;2023-01-16T14:13:14;2.42;;;1.30;;
68457;SDS011;65384;52.016;5.428;2023-01-16T14:21:15;2.80;;;1.40;;
68457;SDS011;65384;52.016;5.428;2023-01-16T14:23:45;2.53;;;1.30;;
68457;SDS011;65384;52.016;5.428;2023-01-16T14:29:45;5.18;;;1.60;;
68457;SDS011;65384;52.016;5.428;2023-01-16T14:34:21;2.07;;;1.20;;
68457;SDS011;65384;52.016;5.428;2023-01-16T14:36:50;2.13;;;1.33;;
68457;SDS011;65384;52.016;5.428;2023-01-16T14:40:19;3.63;;;1.83;;
68457;SDS011;65384;52.016;5.428;2023-01-16T14:45:17;2.60;;;1.60;;
68457;SDS011;65384;52.016;5.428;2023-01-16T14:51:01;5.35;;;2.17;;
68457;SDS011;65384;52.016;5.428;2023-01-16T14:54:00;3.38;;;1.58;;
68457;SDS011;65384;52.016;5.428;2023-01-16T14:59:40;3.33;;;1.60;;
68457;SDS011;65384;52.016;5.428;2023-01-16T15:07:50;4.53;;;1.60;;
68457;SDS011;65384;52.016;5.428;2023-01-16T15:10:31;3.60;;;1.80;;
68457;SDS011;65384;52.016;5.428;2023-01-16T15:15:52;2.92;;;1.67;;
68457;SDS011;65384;52.016;5.428;2023-01-16T15:18:27;3.55;;;1.85;;
68457;SDS011;65384;52.016;5.428;2023-01-16T15:21:14;3.88;;;2.15;;
68457;SDS011;65384;52.016;5.428;2023-01-16T15:24:00;4.40;;;1.80;;
68457;SDS011;65384;52.016;5.428;2023-01-16T15:26:29;3.28;;;2.00;;
68457;SDS011;65384;52.016;5.428;2023-01-16T15:32:13;3.90;;;2.00;;
68457;SDS011;65384;52.016;5.428;2023-01-16T15:34:43;5.53;;;2.35;;
68457;SDS011;65384;52.016;5.428;2023-01-16T15:37:17;9.43;;;3.35;;
68457;SDS011;65384;52.016;5.428;2023-01-16T15:39:45;6.40;;;2.75;;
68457;SDS011;65384;52.016;5.428;2023-01-16T15:42:21;7.78;;;3.10;;
68457;SDS011;65384;52.016;5.428;2023-01-16T15:45:25;6.57;;;3.63;;
68457;SDS011;65384;52.016;5.428;2023-01-16T15:48:19;6.63;;;3.47;;
68457;SDS011;65384;52.016;5.428;2023-01-16T15:53:20;6.85;;;3.65;;
68457;SDS011;65384;52.016;5.428;2023-01-16T15:55:50;5.82;;;2.45;;
68457;SDS011;65384;52.016;5.428;2023-01-16T15:58:18;5.50;;;2.80;;
68457;SDS011;65384;52.016;5.428;2023-01-16T16:00:44;6.22;;;3.30;;
68457;SDS011;65384;52.016;5.428;2023-01-16T16:03:19;5.68;;;3.28;;
68457;SDS011;65384;52.016;5.428;2023-01-16T16:05:50;5.30;;;3.10;;
68457;SDS011;65384;52.016;5.428;2023-01-16T16:08:19;6.45;;;3.53;;
68457;SDS011;65384;52.016;5.428;2023-01-16T16:10:46;5.93;;;3.58;;
68457;SDS011;65384;52.016;5.428;2023-01-16T16:13:30;5.40;;;3.10;;
68457;SDS011;65384;52.016;5.428;2023-01-16T16:16:00;6.75;;;3.30;;
68457;SDS011;65384;52.016;5.428;2023-01-16T16:18:55;6.93;;;3.70;;
68457;SDS011;65384;52.016;5.428;2023-01-16T16:21:45;10.32;;;4.18;;
68457;SDS011;65384;52.016;5.428;2023-01-16T16:24:31;7.13;;;3.72;;
68457;SDS011;65384;52.016;5.428;2023-01-16T16:26:57;9.25;;;3.70;;
68457;SDS011;65384;52.016;5.428;2023-01-16T16:29:23;7.25;;;3.65;;
68457;SDS011;65384;52.016;5.428;2023-01-16T16:31:48;8.05;;;3.80;;
68457;SDS011;65384;52.016;5.428;2023-01-16T16:36:46;7.93;;;4.53;;
68457;SDS011;65384;52.016;5.428;2023-01-16T16:41:49;7.07;;;4.07;;
68457;SDS011;65384;52.016;5.428;2023-01-16T16:44:35;7.85;;;4.28;;
68457;SDS011;65384;52.016;5.428;2023-01-16T16:47:16;6.95;;;4.07;;
68457;SDS011;65384;52.016;5.428;2023-01-16T16:49:46;9.93;;;4.50;;
68457;SDS011;65384;52.016;5.428;2023-01-16T16:52:22;8.88;;;4.60;;
68457;SDS011;65384;52.016;5.428;2023-01-16T16:54:58;6.85;;;3.85;;
68457;SDS011;65384;52.016;5.428;2023-01-16T16:57:25;9.02;;;3.95;;
68457;SDS011;65384;52.016;5.428;2023-01-16T16:59:52;9.52;;;4.25;;
68457;SDS011;65384;52.016;5.428;2023-01-16T17:02:18;11.48;;;5.88;;
68457;SDS011;65384;52.016;5.428;2023-01-16T17:04:43;12.98;;;6.95;;
68457;SDS011;65384;52.016;5.428;2023-01-16T17:07:09;14.38;;;6.05;;
68457;SDS011;65384;52.016;5.428;2023-01-16T17:09:35;15.82;;;6.95;;
68457;SDS011;65384;52.016;5.428;2023-01-16T17:12:17;15.48;;;6.72;;
68457;SDS011;65384;52.016;5.428;2023-01-16T17:14:45;14.63;;;6.70;;
68457;SDS011;65384;52.016;5.428;2023-01-16T17:17:12;15.23;;;6.70;;
68457;SDS011;65384;52.016;5.428;2023-01-16T17:19:39;11.90;;;5.60;;
68457;SDS011;65384;52.016;5.428;2023-01-16T17:22:04;14.80;;;7.20;;
68457;SDS011;65384;52.016;5.428;2023-01-16T17:24:30;9.13;;;4.20;;
68457;SDS011;65384;52.016;5.428;2023-01-16T17:26:55;5.32;;;3.00;;
68457;SDS011;65384;52.016;5.428;2023-01-16T17:29:21;6.07;;;3.45;;
68457;SDS011;65384;52.016;5.428;2023-01-16T17:31:46;4.93;;;2.50;;
68457;SDS011;65384;52.016;5.428;2023-01-16T17:34:13;5.03;;;2.83;;
68457;SDS011;65384;52.016;5.428;2023-01-16T17:36:39;5.72;;;3.10;;
68457;SDS011;65384;52.016;5.428;2023-01-16T17:39:05;7.35;;;3.70;;
68457;SDS011;65384;52.016;5.428;2023-01-16T17:41:30;6.15;;;3.30;;
68457;SDS011;65384;52.016;5.428;2023-01-16T17:43:59;5.45;;;3.00;;
68457;SDS011;65384;52.016;5.428;2023-01-16T17:46:43;4.72;;;2.60;;
68457;SDS011;65384;52.016;5.428;2023-01-16T17:49:08;5.47;;;2.80;;